createdAt,value
2018-04-30T00:01:24.538Z,7.67
2018-04-30T00:03:52.192Z,7.13
2018-04-30T00:06:19.802Z,6.90
2018-04-30T00:08:48.238Z,6.97
2018-04-30T00:11:15.846Z,6.47
2018-04-30T00:13:44.259Z,6.27
2018-04-30T00:16:11.861Z,6.83
2018-04-30T00:18:39.505Z,6.63
2018-04-30T00:21:07.099Z,7.00
2018-04-30T00:23:34.738Z,7.03
2018-04-30T00:26:03.102Z,8.00
2018-04-30T00:28:30.771Z,6.73
2018-04-30T00:30:58.383Z,6.57
2018-04-30T00:33:26.047Z,6.20
2018-04-30T00:35:53.702Z,6.73
2018-04-30T00:38:22.228Z,6.50
2018-04-30T00:40:49.832Z,6.80
2018-04-30T00:43:18.207Z,6.57
2018-04-30T00:45:45.874Z,6.60
2018-04-30T00:48:14.250Z,6.50
2018-04-30T00:50:42.662Z,7.37
2018-04-30T00:53:10.278Z,6.23
2018-04-30T00:55:37.932Z,6.63
2018-04-30T00:58:05.585Z,7.33
2018-04-30T01:00:33.221Z,6.33
2018-04-30T01:03:00.866Z,7.10
2018-04-30T01:05:28.517Z,7.10
2018-04-30T01:07:56.557Z,7.00
2018-04-30T01:10:24.209Z,6.83
2018-04-30T01:12:51.850Z,6.53
2018-04-30T01:15:19.514Z,6.83
2018-04-30T01:17:48.621Z,6.97
2018-04-30T01:20:16.245Z,7.30
2018-04-30T01:22:43.879Z,8.00
2018-04-30T01:25:12.290Z,7.47
2018-04-30T01:27:39.942Z,6.80
2018-04-30T01:30:07.594Z,7.20
2018-04-30T01:32:35.206Z,6.43
2018-04-30T01:35:03.801Z,6.53
2018-04-30T01:37:31.441Z,6.90
2018-04-30T01:39:59.059Z,7.00
2018-04-30T01:42:27.497Z,6.30
2018-04-30T01:44:55.145Z,6.80
2018-04-30T01:47:22.784Z,6.80
2018-04-30T01:49:50.415Z,7.00
2018-04-30T01:52:18.828Z,7.20
2018-04-30T01:54:46.465Z,7.30
2018-04-30T01:57:14.104Z,7.70
2018-04-30T01:59:41.713Z,8.37
2018-04-30T02:02:09.379Z,7.63
2018-04-30T02:04:37.001Z,7.00
2018-04-30T02:07:05.393Z,7.30
2018-04-30T02:09:33.033Z,7.60
2018-04-30T02:12:01.441Z,7.47
2018-04-30T02:14:29.044Z,7.40
2018-04-30T02:16:56.713Z,6.90
2018-04-30T02:19:24.354Z,6.83
2018-04-30T02:21:55.389Z,6.73
2018-04-30T02:24:23.001Z,6.97
2018-04-30T02:26:51.408Z,6.80
2018-04-30T02:29:19.009Z,7.00
2018-04-30T02:31:46.657Z,7.40
2018-04-30T02:34:14.325Z,7.80
2018-04-30T02:36:41.947Z,7.07
2018-04-30T02:39:09.607Z,7.43
2018-04-30T02:41:37.266Z,7.10
2018-04-30T02:44:04.930Z,7.43
2018-04-30T02:46:32.577Z,7.63
2018-04-30T02:49:00.245Z,7.80
2018-04-30T02:51:27.974Z,7.50
2018-04-30T02:53:55.630Z,7.87
2018-04-30T02:56:23.246Z,7.27
2018-04-30T02:58:50.902Z,7.07
2018-04-30T03:01:18.546Z,6.83
2018-04-30T03:03:46.937Z,7.47
2018-04-30T03:06:14.602Z,6.90
2018-04-30T03:08:42.293Z,7.30
2018-04-30T03:11:09.894Z,7.30
2018-04-30T03:13:37.580Z,7.43
2018-04-30T03:16:05.204Z,7.27
2018-04-30T03:18:32.871Z,6.90
2018-04-30T03:21:00.494Z,8.10
2018-04-30T03:23:28.194Z,7.13
2018-04-30T03:25:55.801Z,7.43
2018-04-30T03:28:23.417Z,7.43
2018-04-30T03:30:51.078Z,7.77
2018-04-30T03:33:18.706Z,7.90
2018-04-30T03:35:46.356Z,8.13
2018-04-30T03:38:13.964Z,8.07
2018-04-30T03:40:42.390Z,7.70
2018-04-30T03:43:10.037Z,8.50
2018-04-30T03:45:37.635Z,8.30
2018-04-30T03:48:05.290Z,8.47
2018-04-30T03:50:32.912Z,7.70
2018-04-30T03:53:01.311Z,7.50
2018-04-30T03:55:28.912Z,7.77
2018-04-30T03:57:56.549Z,7.80
2018-04-30T04:00:35.989Z,7.73
2018-04-30T04:03:15.460Z,8.57
2018-04-30T04:05:54.901Z,8.50
2018-04-30T04:08:22.499Z,8.33
2018-04-30T04:10:50.130Z,8.43
2018-04-30T04:13:18.495Z,8.20
2018-04-30T04:15:46.132Z,8.03
2018-04-30T04:18:13.760Z,8.10
2018-04-30T04:20:41.836Z,7.97
2018-04-30T04:23:09.466Z,8.27
2018-04-30T04:25:37.889Z,8.20
2018-04-30T04:28:05.543Z,8.93
2018-04-30T04:30:33.158Z,9.00
2018-04-30T04:33:00.815Z,8.30
2018-04-30T04:35:28.434Z,8.63
2018-04-30T04:37:56.077Z,8.40
2018-04-30T04:40:23.718Z,7.60
2018-04-30T04:42:52.140Z,8.57
2018-04-30T04:45:19.785Z,7.83
2018-04-30T04:47:47.424Z,8.07
2018-04-30T04:50:15.054Z,7.63
2018-04-30T04:52:42.737Z,8.77
2018-04-30T04:55:11.143Z,8.27
2018-04-30T04:57:38.734Z,8.20
2018-04-30T05:00:06.349Z,7.43
2018-04-30T05:02:34.748Z,7.87
2018-04-30T05:05:02.340Z,7.70
2018-04-30T05:07:29.973Z,8.37
2018-04-30T05:09:57.598Z,7.73
2018-04-30T05:12:25.236Z,7.90
2018-04-30T05:14:52.873Z,9.03
2018-04-30T05:17:20.468Z,8.27
2018-04-30T05:19:48.094Z,8.77
2018-04-30T05:22:15.724Z,8.70
2018-04-30T05:24:44.289Z,8.90
2018-04-30T05:27:12.693Z,10.80
2018-04-30T05:29:40.293Z,11.63
2018-04-30T05:32:07.930Z,9.97
2018-04-30T05:34:35.525Z,9.93
2018-04-30T05:37:03.169Z,9.47
2018-04-30T05:39:30.785Z,9.43
2018-04-30T05:41:58.435Z,9.73
2018-04-30T05:44:26.859Z,9.30
2018-04-30T05:46:59.642Z,9.13
2018-04-30T05:49:27.303Z,9.13
2018-04-30T05:51:54.942Z,9.10
2018-04-30T05:54:22.601Z,9.47
2018-04-30T05:56:50.305Z,8.43
2018-04-30T05:59:17.902Z,8.90
2018-04-30T06:01:46.374Z,9.40
2018-04-30T06:04:13.978Z,9.33
2018-04-30T06:06:41.679Z,8.60
2018-04-30T06:09:09.245Z,9.00
2018-04-30T06:11:36.886Z,8.73
2018-04-30T06:14:04.530Z,9.13
2018-04-30T06:16:32.129Z,8.27
2018-04-30T06:18:59.771Z,9.50
2018-04-30T06:21:27.404Z,9.33
2018-04-30T06:23:55.029Z,8.83
2018-04-30T06:26:23.429Z,9.80
2018-04-30T06:28:51.049Z,9.30
2018-04-30T06:31:18.692Z,8.63
2018-04-30T06:33:46.284Z,9.10
2018-04-30T06:36:13.924Z,9.43
2018-04-30T06:38:42.508Z,8.73
2018-04-30T06:41:10.091Z,9.40
2018-04-30T06:43:37.717Z,9.43
2018-04-30T06:46:05.308Z,9.63
2018-04-30T06:48:32.996Z,9.53
2018-04-30T06:51:01.397Z,9.63
2018-04-30T06:53:29.105Z,9.47
2018-04-30T06:55:56.637Z,8.30
2018-04-30T06:58:24.272Z,8.07
2018-04-30T07:00:51.860Z,8.07
2018-04-30T07:03:19.488Z,7.93
2018-04-30T07:05:47.112Z,8.00
2018-04-30T07:08:14.705Z,8.00
2018-04-30T07:10:42.349Z,8.13
2018-04-30T07:13:10.749Z,8.43
2018-04-30T07:15:38.336Z,8.10
2018-04-30T07:18:05.968Z,7.83
2018-04-30T07:20:33.557Z,8.30
2018-04-30T07:23:01.194Z,8.50
2018-04-30T07:25:28.788Z,7.40
2018-04-30T07:27:56.538Z,7.47
2018-04-30T07:30:24.105Z,7.73
2018-04-30T07:32:51.725Z,8.47
2018-04-30T07:35:20.085Z,7.63
2018-04-30T07:37:47.713Z,7.70
2018-04-30T07:40:15.301Z,7.43
2018-04-30T07:42:43.769Z,6.37
2018-04-30T07:45:11.400Z,7.10
2018-04-30T07:47:39.043Z,6.03
2018-04-30T07:50:07.013Z,7.23
2018-04-30T07:52:34.600Z,7.33
2018-04-30T07:55:02.229Z,6.97
2018-04-30T07:57:29.862Z,7.30
2018-04-30T07:59:58.216Z,7.20
2018-04-30T08:02:25.854Z,6.23
2018-04-30T08:04:53.441Z,6.87
2018-04-30T08:07:21.075Z,6.27
2018-04-30T08:09:48.660Z,7.27
2018-04-30T08:12:16.288Z,7.43
2018-04-30T08:14:43.916Z,6.40
2018-04-30T08:17:12.316Z,6.90
2018-04-30T08:19:39.931Z,6.97
2018-04-30T08:22:07.558Z,7.17
2018-04-30T08:24:35.224Z,6.80
2018-04-30T08:27:02.844Z,7.10
2018-04-30T08:29:31.292Z,7.23
2018-04-30T08:31:58.877Z,7.03
2018-04-30T08:34:27.285Z,6.87
2018-04-30T08:36:55.320Z,6.63
2018-04-30T08:39:23.009Z,6.67
2018-04-30T08:41:50.651Z,5.50
2018-04-30T08:44:19.239Z,6.53
2018-04-30T08:46:47.630Z,6.90
2018-04-30T08:49:15.414Z,7.17
2018-04-30T08:51:43.005Z,6.17
2018-04-30T08:54:10.684Z,6.53
2018-04-30T08:56:38.514Z,5.90
2018-04-30T08:59:06.188Z,5.53
2018-04-30T09:01:33.792Z,5.27
2018-04-30T09:04:02.195Z,4.80
2018-04-30T09:06:29.804Z,4.20
2018-04-30T09:08:57.534Z,4.83
2018-04-30T09:11:25.177Z,4.53
2018-04-30T09:13:52.892Z,5.23
2018-04-30T09:16:20.655Z,4.77
2018-04-30T09:18:48.305Z,4.30
2018-04-30T09:21:15.980Z,4.50
2018-04-30T09:23:43.671Z,4.10
2018-04-30T09:26:11.330Z,3.80
2018-04-30T09:28:40.492Z,3.67
2018-04-30T09:31:08.257Z,3.77
2018-04-30T09:33:35.854Z,4.13
2018-04-30T09:36:04.277Z,3.60
2018-04-30T09:38:32.194Z,3.80
2018-04-30T09:41:00.950Z,3.40
2018-04-30T09:43:28.546Z,3.47
2018-04-30T09:45:56.952Z,3.20
2018-04-30T09:48:24.602Z,3.40
2018-04-30T09:50:52.239Z,3.40
2018-04-30T09:53:20.785Z,3.03
2018-04-30T09:55:48.551Z,3.27
2018-04-30T09:58:16.464Z,3.07
2018-04-30T10:00:44.326Z,3.10
2018-04-30T10:03:12.942Z,2.87
2018-04-30T10:05:41.781Z,3.13
2018-04-30T10:08:10.174Z,2.80
2018-04-30T10:10:38.581Z,2.77
2018-04-30T10:13:06.190Z,2.80
2018-04-30T10:15:33.836Z,2.80
2018-04-30T10:18:01.477Z,2.53
2018-04-30T10:20:30.994Z,2.70
2018-04-30T10:22:58.597Z,2.50
2018-04-30T10:25:26.997Z,2.83
2018-04-30T10:27:55.381Z,2.70
2018-04-30T10:30:23.174Z,2.80
2018-04-30T10:32:51.542Z,2.43
2018-04-30T10:35:19.525Z,2.80
2018-04-30T10:37:47.136Z,2.80
2018-04-30T10:40:15.545Z,2.47
2018-04-30T10:42:43.180Z,2.70
2018-04-30T10:45:11.605Z,3.20
2018-04-30T10:47:39.196Z,2.97
2018-04-30T10:50:06.829Z,2.63
2018-04-30T10:52:34.421Z,2.93
2018-04-30T10:55:02.058Z,2.97
2018-04-30T10:57:29.657Z,2.80
2018-04-30T10:59:58.057Z,2.63
2018-04-30T11:02:25.657Z,2.67
2018-04-30T11:04:53.292Z,2.80
2018-04-30T11:07:20.933Z,2.87
2018-04-30T11:09:49.490Z,2.73
2018-04-30T11:12:18.045Z,2.73
2018-04-30T11:14:45.664Z,3.00
2018-04-30T11:17:13.391Z,2.70
2018-04-30T11:19:41.796Z,2.83
2018-04-30T11:22:09.459Z,2.60
2018-04-30T11:24:37.127Z,2.77
2018-04-30T11:27:04.820Z,2.77
2018-04-30T11:29:32.479Z,2.70
2018-04-30T11:32:00.098Z,2.70
2018-04-30T11:34:28.566Z,3.00
2018-04-30T11:36:56.234Z,2.50
2018-04-30T11:39:24.729Z,2.60
2018-04-30T11:41:53.101Z,2.13
2018-04-30T11:44:20.782Z,2.70
2018-04-30T11:46:48.419Z,3.00
2018-04-30T11:49:16.142Z,2.70
2018-04-30T11:51:43.802Z,3.00
2018-04-30T11:54:11.447Z,2.80
2018-04-30T11:56:39.049Z,2.87
2018-04-30T11:59:06.710Z,2.80
2018-04-30T12:01:34.312Z,3.10
2018-04-30T12:04:01.909Z,2.90
2018-04-30T12:06:29.565Z,3.07
2018-04-30T12:08:57.316Z,2.90
2018-04-30T12:11:25.001Z,2.47
2018-04-30T12:13:52.649Z,2.90
2018-04-30T12:16:20.258Z,2.97
2018-04-30T12:18:48.693Z,2.80
2018-04-30T12:21:16.332Z,2.43
2018-04-30T12:23:44.162Z,2.73
2018-04-30T12:26:11.801Z,2.50
2018-04-30T12:28:39.505Z,2.53
2018-04-30T12:31:07.178Z,2.37
2018-04-30T12:33:34.875Z,2.70
2018-04-30T12:36:03.299Z,2.47
2018-04-30T12:38:30.952Z,2.23
2018-04-30T12:40:59.350Z,2.50
2018-04-30T12:43:26.964Z,2.53
2018-04-30T12:45:54.601Z,2.50
2018-04-30T12:48:22.251Z,2.43
2018-04-30T12:50:49.937Z,2.60
2018-04-30T12:53:17.546Z,2.73
2018-04-30T12:55:45.239Z,2.10
2018-04-30T12:58:12.884Z,2.30
2018-04-30T13:00:40.568Z,2.30
2018-04-30T13:03:08.288Z,2.60
2018-04-30T13:05:36.714Z,2.73
2018-04-30T13:08:04.336Z,2.70
2018-04-30T13:10:31.968Z,2.10
2018-04-30T13:12:59.565Z,2.30
2018-04-30T13:15:27.383Z,2.50
2018-04-30T13:17:56.222Z,2.60
2018-04-30T13:20:23.987Z,2.33
2018-04-30T13:22:51.595Z,2.30
2018-04-30T13:25:19.228Z,2.30
2018-04-30T13:27:46.865Z,2.57
2018-04-30T13:30:14.509Z,2.60
2018-04-30T13:32:42.161Z,2.43
2018-04-30T13:35:09.773Z,2.40
2018-04-30T13:37:37.421Z,2.40
2018-04-30T13:40:05.017Z,2.50
2018-04-30T13:42:32.671Z,2.70
2018-04-30T13:45:00.416Z,2.60
2018-04-30T13:47:28.053Z,2.53
2018-04-30T13:49:56.405Z,2.60
2018-04-30T13:52:24.032Z,2.40
2018-04-30T13:54:51.696Z,2.60
2018-04-30T13:57:19.320Z,2.50
2018-04-30T13:59:47.712Z,2.40
2018-04-30T14:02:15.410Z,2.63
2018-04-30T14:04:43.269Z,2.33
2018-04-30T14:07:10.955Z,2.27
2018-04-30T14:09:38.611Z,2.50
2018-04-30T14:12:07.089Z,2.70
2018-04-30T14:14:34.838Z,2.23
2018-04-30T14:17:02.497Z,3.00
2018-04-30T14:19:30.155Z,2.20
2018-04-30T14:21:57.800Z,2.40
2018-04-30T14:24:25.497Z,2.60
2018-04-30T14:26:53.189Z,2.50
2018-04-30T14:29:21.660Z,2.47
2018-04-30T14:31:49.321Z,2.43
2018-04-30T14:34:17.090Z,2.40
2018-04-30T14:36:45.614Z,2.60
2018-04-30T14:39:13.222Z,2.30
2018-04-30T14:41:40.916Z,2.07
2018-04-30T14:44:09.458Z,2.37
2018-04-30T14:46:37.129Z,2.33
2018-04-30T14:49:04.794Z,2.33
2018-04-30T14:51:32.437Z,2.03
2018-04-30T14:54:00.086Z,3.13
2018-04-30T14:56:27.803Z,2.00
2018-04-30T14:58:56.498Z,2.37
2018-04-30T15:01:25.190Z,1.90
2018-04-30T15:03:52.868Z,2.20
2018-04-30T15:06:20.498Z,2.33
2018-04-30T15:08:48.911Z,1.93
2018-04-30T15:11:17.499Z,2.20
2018-04-30T15:13:45.367Z,1.97
2018-04-30T15:16:13.055Z,2.10
2018-04-30T15:18:40.894Z,2.20
2018-04-30T15:21:08.538Z,1.90
2018-04-30T15:23:36.381Z,2.10
2018-04-30T15:26:05.150Z,1.93
2018-04-30T15:28:32.853Z,1.80
2018-04-30T15:31:00.509Z,2.37
2018-04-30T15:33:28.155Z,1.80
2018-04-30T15:35:56.596Z,1.90
2018-04-30T15:38:24.671Z,2.20
2018-04-30T15:40:52.377Z,1.90
2018-04-30T15:43:20.223Z,1.60
2018-04-30T15:45:48.672Z,1.70
2018-04-30T15:48:16.404Z,1.60
2018-04-30T15:50:44.054Z,1.57
2018-04-30T15:53:12.421Z,1.63
2018-04-30T15:55:41.199Z,1.70
2018-04-30T15:58:09.131Z,1.50
2018-04-30T16:00:37.122Z,1.60
2018-04-30T16:03:04.883Z,1.60
2018-04-30T16:05:32.544Z,1.50
2018-04-30T16:08:00.688Z,1.60
2018-04-30T16:10:28.507Z,1.60
2018-04-30T16:12:58.593Z,1.40
2018-04-30T16:15:27.079Z,1.47
2018-04-30T16:17:54.717Z,1.40
2018-04-30T16:20:22.418Z,1.70
2018-04-30T16:22:51.801Z,1.90
2018-04-30T16:25:20.433Z,1.60
2018-04-30T16:27:48.339Z,1.50
2018-04-30T16:30:16.041Z,1.40
2018-04-30T16:32:44.445Z,1.62
2018-04-30T16:35:12.426Z,1.60
2018-04-30T16:37:40.132Z,1.80
2018-04-30T16:40:09.504Z,1.50
2018-04-30T16:42:37.345Z,1.83
2018-04-30T16:45:05.483Z,1.70
2018-04-30T16:47:33.132Z,2.00
2018-04-30T16:50:00.743Z,1.85
2018-04-30T16:52:28.452Z,1.50
2018-04-30T16:54:57.079Z,3.00
2018-04-30T16:57:25.582Z,2.55
2018-04-30T16:59:53.230Z,1.70
2018-04-30T17:02:20.906Z,1.52
2018-04-30T17:04:48.916Z,1.80
2018-04-30T17:07:16.688Z,2.28
2018-04-30T17:09:45.783Z,2.10
2018-04-30T17:12:13.406Z,1.83
2018-04-30T17:14:41.050Z,1.73
2018-04-30T17:17:08.766Z,1.70
2018-04-30T17:19:36.382Z,1.92
2018-04-30T17:22:04.038Z,1.48
2018-04-30T17:24:31.709Z,1.52
2018-04-30T17:26:59.309Z,1.80
2018-04-30T17:29:26.963Z,1.40
2018-04-30T17:31:54.581Z,1.70
2018-04-30T17:34:22.211Z,1.67
2018-04-30T17:36:50.662Z,1.60
2018-04-30T17:39:18.295Z,1.70
2018-04-30T17:41:45.937Z,1.87
2018-04-30T17:44:13.582Z,3.00
2018-04-30T17:46:42.024Z,2.33
2018-04-30T17:49:10.562Z,2.30
2018-04-30T17:51:38.213Z,2.33
2018-04-30T17:54:05.855Z,2.50
2018-04-30T17:56:33.715Z,2.53
2018-04-30T17:59:01.401Z,2.10
2018-04-30T18:01:29.816Z,2.03
2018-04-30T18:03:57.422Z,1.87
2018-04-30T18:06:25.382Z,1.80
2018-04-30T18:08:53.093Z,1.87
2018-04-30T18:11:21.851Z,1.80
2018-04-30T18:13:50.673Z,2.53
2018-04-30T18:16:18.310Z,2.40
2018-04-30T18:18:46.427Z,2.10
2018-04-30T18:21:14.131Z,1.83
2018-04-30T18:23:42.166Z,3.60
2018-04-30T18:26:10.010Z,4.33
2018-04-30T18:28:37.666Z,2.37
2018-04-30T18:31:05.258Z,2.30
2018-04-30T18:33:33.420Z,2.30
2018-04-30T18:36:01.509Z,1.70
2018-04-30T18:38:31.258Z,1.60
2018-04-30T18:40:59.039Z,2.03
2018-04-30T18:43:27.440Z,2.00
2018-04-30T18:45:55.362Z,1.80
2018-04-30T18:48:28.760Z,1.80
2018-04-30T18:50:56.741Z,2.00
2018-04-30T18:53:24.482Z,1.90
2018-04-30T18:55:53.054Z,1.90
2018-04-30T18:58:20.865Z,1.80
2018-04-30T19:00:48.726Z,1.53
2018-04-30T19:03:16.371Z,1.93
2018-04-30T19:05:44.874Z,1.70
2018-04-30T19:08:14.303Z,1.80
2018-04-30T19:10:42.225Z,1.80
2018-04-30T19:13:09.985Z,1.80
2018-04-30T19:15:38.558Z,1.57
2018-04-30T19:18:07.520Z,1.53
2018-04-30T19:20:35.586Z,1.70
2018-04-30T19:23:03.302Z,2.03
2018-04-30T19:25:30.999Z,1.63
2018-04-30T19:27:58.747Z,1.80
2018-04-30T19:30:26.704Z,1.70
2018-04-30T19:32:54.474Z,1.70
2018-04-30T19:35:22.935Z,1.77
2018-04-30T19:37:50.629Z,1.60
2018-04-30T19:40:18.479Z,1.60
2018-04-30T19:42:46.383Z,1.77
2018-04-30T19:45:14.262Z,1.80
2018-04-30T19:47:41.934Z,1.63
2018-04-30T19:50:09.630Z,1.43
2018-04-30T19:52:37.549Z,1.60
2018-04-30T19:55:06.010Z,1.43
2018-04-30T19:57:33.866Z,1.67
2018-04-30T20:00:02.593Z,1.70
2018-04-30T20:02:31.183Z,1.50
2018-04-30T20:04:59.038Z,1.50
2018-04-30T20:07:27.504Z,1.93
2018-04-30T20:09:55.160Z,1.90
2018-04-30T20:12:23.651Z,1.70
2018-04-30T20:14:52.238Z,2.33
2018-04-30T20:17:19.924Z,1.90
2018-04-30T20:19:48.354Z,2.23
2018-04-30T20:22:16.020Z,2.90
2018-04-30T20:24:43.681Z,2.03
2018-04-30T20:27:11.671Z,2.40
2018-04-30T20:29:39.301Z,2.50
2018-04-30T20:32:06.941Z,1.70
2018-04-30T20:34:35.381Z,1.70
2018-04-30T20:37:03.170Z,2.53
2018-04-30T20:39:31.034Z,2.73
2018-04-30T20:41:58.698Z,1.87
2018-04-30T20:44:26.445Z,2.53
2018-04-30T20:46:54.783Z,2.33
2018-04-30T20:49:23.551Z,2.17
2018-04-30T20:51:52.226Z,2.73
2018-04-30T20:54:19.934Z,2.63
2018-04-30T20:56:47.529Z,3.00
2018-04-30T20:59:15.174Z,1.83
2018-04-30T21:01:42.780Z,1.80
2018-04-30T21:04:10.421Z,2.10
2018-04-30T21:06:38.166Z,2.23
2018-04-30T21:09:12.752Z,2.50
2018-04-30T21:11:40.438Z,3.77
2018-04-30T21:14:08.117Z,2.33
2018-04-30T21:16:35.761Z,1.87
2018-04-30T21:19:03.402Z,2.37
2018-04-30T21:21:31.002Z,2.30
2018-04-30T21:23:59.449Z,2.47
2018-04-30T21:26:27.053Z,2.43
2018-04-30T21:28:54.737Z,2.20
2018-04-30T21:31:23.112Z,2.00
2018-04-30T21:33:51.520Z,2.10
2018-04-30T21:36:19.125Z,2.13
2018-04-30T21:38:46.766Z,2.43
2018-04-30T21:41:14.442Z,2.20
2018-04-30T21:43:42.176Z,2.13
2018-04-30T21:46:09.822Z,1.80
2018-04-30T21:48:37.434Z,1.87
2018-04-30T21:51:05.111Z,2.00
2018-04-30T21:53:33.506Z,1.73
2018-04-30T21:56:01.873Z,2.40
2018-04-30T21:58:30.266Z,2.33
2018-04-30T22:00:58.612Z,2.77
2018-04-30T22:03:26.249Z,2.43
2018-04-30T22:05:53.841Z,3.67
2018-04-30T22:08:21.470Z,2.53
2018-04-30T22:10:49.847Z,2.40
2018-04-30T22:13:17.499Z,2.40
2018-04-30T22:15:45.085Z,2.40
2018-04-30T22:18:12.720Z,2.70
2018-04-30T22:20:40.345Z,2.40
2018-04-30T22:23:08.750Z,1.70
2018-04-30T22:25:36.373Z,2.07
2018-04-30T22:28:04.781Z,2.03
2018-04-30T22:30:32.368Z,1.43
2018-04-30T22:33:00.001Z,1.97
2018-04-30T22:35:27.632Z,2.10
2018-04-30T22:37:55.239Z,2.00
2018-04-30T22:40:22.869Z,2.17
2018-04-30T22:42:51.265Z,2.40
2018-04-30T22:45:18.849Z,1.77
2018-04-30T22:47:46.477Z,1.60
2018-04-30T22:50:14.063Z,2.17
2018-04-30T22:52:47.829Z,2.20
2018-04-30T22:55:16.202Z,1.73
2018-04-30T22:57:44.613Z,1.70
2018-04-30T23:00:13.150Z,1.57
2018-04-30T23:02:41.829Z,1.60
2018-04-30T23:05:09.425Z,1.60
2018-04-30T23:07:38.134Z,1.50
2018-04-30T23:10:05.779Z,1.83
2018-04-30T23:12:33.431Z,1.60
2018-04-30T23:15:01.111Z,1.70
2018-04-30T23:17:28.755Z,1.90
2018-04-30T23:19:56.395Z,1.97
2018-04-30T23:22:24.898Z,1.47
2018-04-30T23:24:52.514Z,1.63
2018-04-30T23:27:20.166Z,2.03
2018-04-30T23:29:47.770Z,2.10
2018-04-30T23:32:16.185Z,1.80
2018-04-30T23:34:43.789Z,1.80
2018-04-30T23:37:11.454Z,1.57
2018-04-30T23:39:39.058Z,2.00
2018-04-30T23:42:06.689Z,1.57
2018-04-30T23:44:35.125Z,1.53
2018-04-30T23:47:02.726Z,1.60
2018-04-30T23:49:31.138Z,1.90
2018-04-30T23:51:58.793Z,1.60
2018-04-30T23:54:26.395Z,1.60
2018-04-30T23:56:54.032Z,1.50
2018-04-30T23:59:21.650Z,1.70
